Time;durP1;ratioP1;P1;durP2;ratioP2;P2;SDS_P1;SDS_P2;PMS_P1;PMS_P2;Temp;Humidity;BMP_temperature;BMP_pressure;BME280_temperature;BME280_humidity;BME280_pressure;Samples;Min_cycle;Max_cycle;Signal;HPM_P1;HPM_P2
2023/06/14 00:00:44;;;;;;;12.90;6.80;;;20.80;59.80;;;;;;5025428;28;20051;-80
2023/06/14 00:03:11;;;;;;;13.73;7.38;;;20.80;59.80;;;;;;5021512;28;20081;-80
2023/06/14 00:05:42;;;;;;;14.90;7.07;;;20.70;59.90;;;;;;5024734;28;20705;-79
2023/06/14 00:08:09;;;;;;;11.13;6.68;;;20.70;60.50;;;;;;5019748;28;20044;-80
2023/06/14 00:10:40;;;;;;;16.90;7.90;;;20.60;60.80;;;;;;5018759;28;20033;-79
2023/06/14 00:13:07;;;;;;;12.48;7.07;;;20.60;61.20;;;;;;5017068;28;20584;-79
2023/06/14 00:15:33;;;;;;;11.95;7.05;;;20.60;61.50;;;;;;5018220;28;20070;-82
2023/06/14 00:18:00;;;;;;;11.00;6.50;;;20.50;61.70;;;;;;5018851;28;20045;-80
2023/06/14 00:20:27;;;;;;;11.68;6.20;;;20.60;61.70;;;;;;5024423;28;20030;-78
2023/06/14 00:22:54;;;;;;;8.90;5.88;;;20.60;61.50;;;;;;5018931;28;20054;-79
2023/06/14 00:25:22;;;;;;;12.13;6.85;;;20.60;61.50;;;;;;5023499;28;20026;-78
2023/06/14 00:27:47;;;;;;;12.77;6.72;;;20.60;61.50;;;;;;5019751;28;20525;-80
2023/06/14 00:30:13;;;;;;;11.98;6.82;;;20.60;61.40;;;;;;5016343;28;20030;-78
2023/06/14 00:32:39;;;;;;;13.73;8.02;;;20.50;61.80;;;;;;5021421;28;20470;-81
2023/06/14 00:35:05;;;;;;;9.85;6.78;;;20.50;62.00;;;;;;5016861;28;20053;-79
2023/06/14 00:37:31;;;;;;;10.45;6.75;;;20.50;62.10;;;;;;5018315;28;20488;-79
2023/06/14 00:39:57;;;;;;;10.70;7.38;;;20.40;62.30;;;;;;5019608;28;20026;-80
2023/06/14 00:42:27;;;;;;;12.85;7.80;;;20.30;62.60;;;;;;5019065;28;20337;-79
2023/06/14 00:44:53;;;;;;;15.25;7.72;;;20.20;63.20;;;;;;5021770;28;20141;-81
2023/06/14 00:47:19;;;;;;;12.18;7.32;;;20.10;63.70;;;;;;5021600;28;20387;-83
2023/06/14 00:49:53;;;;;;;11.90;6.95;;;20.10;63.80;;;;;;5012612;28;20261;-79
2023/06/14 00:52:19;;;;;;;9.93;6.85;;;20.10;63.60;;;;;;5015669;28;20065;-83
2023/06/14 00:54:44;;;;;;;11.07;6.78;;;20.10;63.50;;;;;;5012650;28;20037;-79
2023/06/14 00:57:11;;;;;;;16.65;7.43;;;20.10;63.40;;;;;;5016411;28;20033;-79
2023/06/14 00:59:57;;;;;;;10.88;7.18;;;20.20;63.40;;;;;;5012340;28;20095;-79
2023/06/14 01:02:26;;;;;;;11.43;7.35;;;20.10;63.50;;;;;;5019081;28;20037;-80
2023/06/14 01:04:53;;;;;;;13.43;7.80;;;20.10;63.40;;;;;;5018332;28;20033;-80
2023/06/14 01:07:49;;;;;;;11.38;7.55;;;20.10;63.80;;;;;;5024543;28;20038;-79
2023/06/14 01:10:23;;;;;;;10.13;6.60;;;20.10;63.90;;;;;;5021655;28;20021;-81
2023/06/14 01:12:58;;;;;;;13.38;7.65;;;20.10;64.00;;;;;;5023511;28;20204;-79
2023/06/14 01:15:24;;;;;;;13.00;8.10;;;20.10;64.00;;;;;;5018711;28;20360;-80
2023/06/14 01:17:53;;;;;;;10.80;7.50;;;20.00;64.00;;;;;;5023621;28;20036;-79
2023/06/14 01:20:21;;;;;;;11.13;7.70;;;19.90;64.30;;;;;;5019039;28;20030;-79
2023/06/14 01:22:53;;;;;;;12.85;8.95;;;19.90;64.60;;;;;;5021798;28;20044;-84
2023/06/14 01:25:23;;;;;;;12.68;7.80;;;19.90;64.40;;;;;;5017297;28;20111;-80
2023/06/14 01:27:51;;;;;;;10.68;7.70;;;19.80;64.60;;;;;;5028391;28;20433;-81
2023/06/14 01:30:18;;;;;;;13.90;9.32;;;19.70;65.20;;;;;;5041069;28;20112;-81
2023/06/14 01:32:45;;;;;;;12.02;8.38;;;19.50;66.10;;;;;;5039646;28;20055;-79
2023/06/14 01:35:11;;;;;;;15.45;9.43;;;19.40;66.50;;;;;;5042981;28;20017;-78
2023/06/14 01:37:37;;;;;;;14.15;8.75;;;19.40;66.90;;;;;;5039041;28;20350;-83
2023/06/14 01:40:07;;;;;;;11.50;8.75;;;19.30;67.10;;;;;;5039197;28;20424;-78
2023/06/14 01:42:37;;;;;;;15.05;8.68;;;19.30;67.10;;;;;;5043787;28;20924;-79
2023/06/14 01:45:05;;;;;;;14.82;8.75;;;19.30;67.30;;;;;;5038661;28;20036;-82
2023/06/14 01:47:32;;;;;;;13.43;8.57;;;19.30;67.30;;;;;;5041430;28;20069;-79
2023/06/14 01:50:01;;;;;;;12.85;8.32;;;19.30;67.20;;;;;;5041830;28;20017;-78
2023/06/14 01:52:27;;;;;;;11.10;8.32;;;19.30;67.10;;;;;;5042421;28;20393;-79
2023/06/14 01:54:52;;;;;;;11.70;9.00;;;19.40;66.90;;;;;;5043752;28;20025;-80
2023/06/14 01:57:20;;;;;;;12.95;8.30;;;19.40;66.80;;;;;;5033440;28;20037;-84
2023/06/14 01:59:48;;;;;;;18.02;9.27;;;19.40;66.70;;;;;;5037181;28;20615;-80
2023/06/14 02:02:14;;;;;;;12.20;9.15;;;19.30;66.40;;;;;;5038339;28;20046;-79
2023/06/14 02:04:40;;;;;;;13.88;9.48;;;19.40;66.70;;;;;;5038255;28;20037;-84
2023/06/14 02:07:05;;;;;;;15.18;10.07;;;19.20;66.90;;;;;;5043259;28;20286;-79
2023/06/14 02:09:31;;;;;;;17.15;10.48;;;19.10;67.50;;;;;;5042498;28;20040;-80
2023/06/14 02:11:57;;;;;;;16.27;10.18;;;19.10;67.70;;;;;;5035045;28;20040;-79
2023/06/14 02:14:23;;;;;;;15.10;9.25;;;19.00;67.90;;;;;;5035022;28;20049;-80
2023/06/14 02:16:49;;;;;;;13.35;9.45;;;19.00;67.90;;;;;;5039616;28;20048;-83
2023/06/14 02:19:19;;;;;;;13.18;9.07;;;19.00;67.90;;;;;;5039884;28;20021;-79
2023/06/14 02:21:45;;;;;;;14.68;10.10;;;19.00;67.80;;;;;;5035139;28;20037;-79
2023/06/14 02:24:11;;;;;;;13.60;9.07;;;19.10;67.50;;;;;;5038063;28;20036;-83
2023/06/14 02:26:43;;;;;;;15.45;10.70;;;19.00;67.70;;;;;;5034403;28;20038;-79
2023/06/14 02:29:10;;;;;;;14.45;10.10;;;19.00;67.80;;;;;;5037751;28;20017;-79
2023/06/14 02:31:36;;;;;;;14.70;10.52;;;19.00;67.90;;;;;;5027380;28;20043;-83
2023/06/14 02:34:02;;;;;;;14.52;10.82;;;18.90;68.10;;;;;;5037716;28;20040;-79
2023/06/14 02:36:30;;;;;;;12.65;9.07;;;18.90;68.10;;;;;;5034607;28;20044;-83
2023/06/14 02:38:57;;;;;;;20.40;10.68;;;18.90;67.90;;;;;;5055172;28;20397;-78
2023/06/14 02:41:23;;;;;;;16.33;11.45;;;18.90;68.00;;;;;;5033532;28;20033;-78
2023/06/14 02:43:49;;;;;;;14.05;11.38;;;18.90;68.20;;;;;;5037652;28;20075;-79
2023/06/14 02:46:15;;;;;;;13.38;10.50;;;18.90;68.30;;;;;;5030916;28;20122;-79
2023/06/14 02:48:41;;;;;;;17.20;10.43;;;18.90;68.20;;;;;;5033959;28;20025;-79
2023/06/14 02:51:08;;;;;;;16.70;11.27;;;19.00;68.20;;;;;;5041195;28;22800;-79
2023/06/14 02:53:34;;;;;;;17.38;12.60;;;18.90;68.10;;;;;;5039341;28;20083;-79
2023/06/14 02:56:00;;;;;;;14.75;10.82;;;18.90;68.10;;;;;;5042152;28;20044;-83
2023/06/14 02:58:26;;;;;;;14.18;11.52;;;18.80;68.50;;;;;;5036318;28;20017;-79
2023/06/14 03:00:52;;;;;;;15.75;11.70;;;18.80;68.60;;;;;;5032345;28;20058;-79
2023/06/14 03:03:18;;;;;;;16.70;11.85;;;18.80;68.50;;;;;;5031862;28;20042;-84
2023/06/14 03:05:47;;;;;;;16.42;12.15;;;18.70;68.40;;;;;;5042282;28;20017;-79
2023/06/14 03:08:19;;;;;;;21.15;13.38;;;18.70;68.40;;;;;;5039755;28;20465;-79
2023/06/14 03:10:48;;;;;;;18.40;12.68;;;18.60;68.30;;;;;;5039187;28;20484;-82
2023/06/14 03:13:15;;;;;;;17.50;12.60;;;18.60;68.80;;;;;;5040090;28;20124;-79
2023/06/14 03:15:41;;;;;;;14.52;12.00;;;18.50;68.90;;;;;;5036250;28;20056;-80
2023/06/14 03:18:11;;;;;;;18.30;12.90;;;18.50;68.80;;;;;;5037356;28;20053;-79
2023/06/14 03:20:37;;;;;;;15.32;12.27;;;18.40;69.00;;;;;;5033527;28;20032;-79
2023/06/14 03:23:04;;;;;;;16.10;12.15;;;18.40;69.20;;;;;;5038585;28;20045;-80
2023/06/14 03:25:31;;;;;;;19.52;13.48;;;18.30;69.20;;;;;;5042744;28;20373;-80
2023/06/14 03:27:57;;;;;;;18.23;12.95;;;18.30;69.40;;;;;;5038464;28;20120;-80
2023/06/14 03:30:23;;;;;;;14.75;12.90;;;18.20;69.40;;;;;;5040844;28;20080;-79
2023/06/14 03:32:48;;;;;;;18.60;12.00;;;18.10;69.60;;;;;;5040278;28;20033;-79
2023/06/14 03:35:17;;;;;;;16.83;13.10;;;18.20;69.50;;;;;;5039252;28;20112;-79
2023/06/14 03:37:46;;;;;;;17.92;12.52;;;18.10;69.00;;;;;;5034735;28;20049;-80
2023/06/14 03:40:14;;;;;;;16.20;13.32;;;18.10;68.80;;;;;;5030017;28;20172;-81
2023/06/14 03:42:40;;;;;;;20.50;12.27;;;18.10;68.70;;;;;;5035168;28;20078;-79
2023/06/14 03:45:06;;;;;;;16.70;12.25;;;18.10;68.40;;;;;;5037777;28;20438;-79
2023/06/14 03:47:33;;;;;;;15.48;13.18;;;18.10;68.30;;;;;;5032955;28;20036;-84
2023/06/14 03:50:00;;;;;;;19.50;13.57;;;18.10;68.10;;;;;;5042784;28;20108;-79
2023/06/14 03:52:26;;;;;;;15.77;12.75;;;18.10;68.10;;;;;;5044304;28;20033;-80
2023/06/14 03:54:51;;;;;;;18.88;13.07;;;18.10;68.00;;;;;;5043041;28;20025;-84
2023/06/14 03:57:17;;;;;;;17.52;12.55;;;18.10;67.90;;;;;;5047294;28;20466;-81
2023/06/14 03:59:43;;;;;;;15.80;12.07;;;18.10;67.90;;;;;;5044849;28;20033;-80
2023/06/14 04:02:09;;;;;;;16.92;12.30;;;18.10;67.60;;;;;;5037332;28;20034;-78
2023/06/14 04:04:35;;;;;;;15.90;12.07;;;18.10;67.60;;;;;;5042184;28;20045;-78
2023/06/14 04:07:03;;;;;;;16.80;13.02;;;18.10;67.40;;;;;;5041187;28;20044;-79
2023/06/14 04:09:29;;;;;;;17.73;12.57;;;18.10;67.20;;;;;;5042131;28;20024;-79
2023/06/14 04:11:55;;;;;;;15.85;12.60;;;18.10;67.00;;;;;;5036224;28;20123;-82
2023/06/14 04:14:21;;;;;;;14.57;11.50;;;18.10;66.70;;;;;;5028707;28;20045;-81
2023/06/14 04:16:48;;;;;;;13.57;10.00;;;18.20;66.70;;;;;;5031467;28;20465;-79
2023/06/14 04:19:14;;;;;;;16.15;11.55;;;18.30;66.50;;;;;;5040755;28;20028;-80
2023/06/14 04:21:40;;;;;;;18.80;11.18;;;18.30;66.10;;;;;;5033193;28;20017;-80
2023/06/14 04:24:06;;;;;;;14.10;10.45;;;18.40;65.80;;;;;;5040821;28;20466;-81
2023/06/14 04:26:33;;;;;;;15.25;10.93;;;18.50;65.40;;;;;;5043812;28;20080;-82
2023/06/14 04:29:02;;;;;;;14.70;10.80;;;18.60;64.30;;;;;;5043949;28;20025;-81
2023/06/14 04:31:33;;;;;;;15.85;10.82;;;18.60;63.80;;;;;;5048478;28;20037;-79
2023/06/14 04:33:59;;;;;;;14.98;10.52;;;18.60;63.10;;;;;;5034379;28;20477;-81
2023/06/14 04:36:26;;;;;;;13.55;10.05;;;18.60;63.00;;;;;;5041889;28;20036;-83
2023/06/14 04:38:54;;;;;;;16.45;10.73;;;18.70;62.80;;;;;;5039036;28;20021;-80
2023/06/14 04:41:22;;;;;;;16.40;9.73;;;18.80;62.00;;;;;;5042674;28;20477;-81
2023/06/14 04:43:53;;;;;;;17.42;11.00;;;18.80;61.80;;;;;;5036379;28;20498;-81
2023/06/14 04:46:19;;;;;;;14.27;11.20;;;18.80;61.50;;;;;;5032849;28;20045;-81
2023/06/14 04:48:45;;;;;;;12.18;9.25;;;18.80;61.30;;;;;;5042121;28;20040;-80
2023/06/14 04:51:12;;;;;;;11.85;9.82;;;18.90;61.20;;;;;;5039139;28;20041;-81
2023/06/14 04:53:38;;;;;;;12.45;10.20;;;19.00;61.00;;;;;;5032172;28;20029;-81
2023/06/14 04:56:04;;;;;;;11.80;8.57;;;19.00;60.20;;;;;;5040538;28;20024;-82
2023/06/14 04:58:30;;;;;;;13.65;9.82;;;19.10;60.30;;;;;;5043601;28;20029;-80
2023/06/14 05:00:56;;;;;;;14.63;9.95;;;19.20;59.80;;;;;;5039694;28;20549;-79
2023/06/14 05:03:24;;;;;;;12.65;8.35;;;19.20;59.60;;;;;;5035227;28;20071;-81
2023/06/14 05:05:50;;;;;;;13.85;8.23;;;19.30;59.90;;;;;;5034772;28;20049;-80
2023/06/14 05:08:16;;;;;;;13.75;9.63;;;19.70;59.60;;;;;;5041765;28;20497;-82
2023/06/14 05:10:42;;;;;;;13.07;9.95;;;20.90;55.70;;;;;;5045475;28;20025;-81
2023/06/14 05:13:08;;;;;;;12.77;9.43;;;22.40;52.00;;;;;;5035271;28;20053;-81
2023/06/14 05:15:33;;;;;;;13.30;9.27;;;23.60;48.70;;;;;;5045270;28;20469;-81
2023/06/14 05:17:59;;;;;;;12.50;8.75;;;24.10;47.80;;;;;;5047062;28;20112;-79
2023/06/14 05:20:26;;;;;;;12.90;9.18;;;24.70;45.50;;;;;;5041842;28;20034;-80
2023/06/14 05:22:53;;;;;;;11.23;8.82;;;25.30;44.10;;;;;;5041238;28;20140;-81
2023/06/14 05:25:22;;;;;;;11.52;8.55;;;25.80;43.00;;;;;;5045215;28;20029;-84
2023/06/14 05:27:48;;;;;;;15.00;8.73;;;26.20;42.30;;;;;;5040167;28;20052;-81
2023/06/14 05:30:15;;;;;;;12.20;8.48;;;26.30;42.40;;;;;;5045307;28;20051;-82
2023/06/14 05:32:41;;;;;;;14.27;9.65;;;26.90;41.50;;;;;;5037004;28;20441;-80
2023/06/14 05:35:07;;;;;;;11.52;9.40;;;27.70;39.70;;;;;;5041933;28;20100;-81
2023/06/14 05:37:32;;;;;;;14.88;9.23;;;27.20;39.70;;;;;;5041562;28;20029;-80
2023/06/14 05:39:58;;;;;;;12.77;9.20;;;27.30;40.30;;;;;;5044680;28;20071;-81
2023/06/14 05:42:24;;;;;;;12.38;8.15;;;27.10;40.70;;;;;;5041475;28;20041;-83
2023/06/14 05:44:49;;;;;;;22.88;11.40;;;27.30;40.00;;;;;;5040840;28;20076;-78
2023/06/14 05:47:16;;;;;;;17.85;11.23;;;27.40;39.50;;;;;;5037506;28;20041;-76
2023/06/14 05:49:41;;;;;;;18.05;10.88;;;27.40;39.00;;;;;;5041923;28;20029;-80
2023/06/14 05:52:08;;;;;;;14.18;9.85;;;26.70;39.80;;;;;;5037204;28;20037;-80
2023/06/14 05:54:33;;;;;;;14.88;10.38;;;26.40;41.20;;;;;;5039653;28;20029;-80
2023/06/14 05:57:01;;;;;;;16.85;10.05;;;25.60;41.80;;;;;;5042282;28;20029;-79
2023/06/14 05:59:27;;;;;;;18.67;10.30;;;24.70;43.90;;;;;;5040387;28;20077;-80
2023/06/14 06:01:53;;;;;;;14.32;9.85;;;24.10;45.60;;;;;;5036184;28;20143;-79
2023/06/14 06:04:19;;;;;;;13.52;9.23;;;23.40;45.90;;;;;;5044483;28;20032;-81
2023/06/14 06:06:45;;;;;;;15.07;11.18;;;23.10;46.90;;;;;;5041134;28;20037;-80
2023/06/14 06:09:10;;;;;;;15.23;11.43;;;23.10;46.40;;;;;;5034119;28;20094;-80
2023/06/14 06:11:36;;;;;;;12.13;9.30;;;23.00;45.50;;;;;;5038920;28;20504;-79
2023/06/14 06:14:02;;;;;;;12.27;8.85;;;22.70;47.00;;;;;;5042994;28;20587;-79
2023/06/14 06:16:27;;;;;;;17.08;9.57;;;22.90;46.40;;;;;;5039316;28;20486;-79
2023/06/14 06:18:53;;;;;;;13.93;9.00;;;23.00;46.00;;;;;;5034880;28;20591;-80
2023/06/14 06:21:19;;;;;;;14.32;9.63;;;22.80;45.90;;;;;;5037187;28;20045;-79
2023/06/14 06:23:44;;;;;;;13.32;9.18;;;22.90;46.00;;;;;;5032147;28;20429;-79
2023/06/14 06:26:10;;;;;;;16.98;9.60;;;22.80;46.00;;;;;;5036767;28;20473;-79
2023/06/14 06:28:36;;;;;;;12.05;9.30;;;22.90;45.20;;;;;;5035696;28;20086;-79
2023/06/14 06:31:01;;;;;;;16.55;9.88;;;23.00;45.40;;;;;;5042567;28;20033;-78
2023/06/14 06:33:27;;;;;;;14.20;8.27;;;23.10;45.30;;;;;;5038057;28;20102;-79
2023/06/14 06:35:53;;;;;;;17.38;8.85;;;23.30;44.80;;;;;;5036178;28;20446;-79
2023/06/14 06:38:18;;;;;;;14.93;9.57;;;23.50;44.80;;;;;;5035400;28;20874;-84
2023/06/14 06:40:44;;;;;;;14.65;9.48;;;23.40;43.90;;;;;;5042154;28;20041;-79
2023/06/14 06:43:13;;;;;;;14.55;9.38;;;23.30;44.20;;;;;;5035259;28;20402;-79
2023/06/14 06:45:39;;;;;;;12.85;9.65;;;23.20;44.60;;;;;;5039640;28;20025;-79
2023/06/14 06:48:05;;;;;;;20.77;9.98;;;23.20;44.10;;;;;;5037467;28;20029;-79
2023/06/14 06:50:31;;;;;;;14.48;9.90;;;23.10;44.70;;;;;;5035656;28;20089;-79
2023/06/14 06:52:57;;;;;;;12.88;8.82;;;23.00;44.60;;;;;;5031663;28;20038;-79
2023/06/14 06:55:23;;;;;;;14.13;9.13;;;23.20;44.90;;;;;;5039027;28;20036;-79
2023/06/14 06:57:49;;;;;;;15.82;9.23;;;23.20;45.00;;;;;;5040902;28;20040;-79
2023/06/14 07:00:17;;;;;;;15.45;9.75;;;23.20;44.80;;;;;;5041689;28;20108;-78
2023/06/14 07:02:43;;;;;;;12.50;9.23;;;23.30;44.70;;;;;;5040060;28;20056;-80
2023/06/14 07:05:08;;;;;;;14.93;9.30;;;23.30;44.20;;;;;;5035284;28;20025;-82
2023/06/14 07:07:35;;;;;;;12.18;9.27;;;23.60;44.30;;;;;;5034329;28;20044;-81
2023/06/14 07:10:04;;;;;;;14.60;9.18;;;24.10;43.50;;;;;;5037364;28;20478;-78
2023/06/14 07:12:31;;;;;;;16.50;9.93;;;24.30;43.80;;;;;;5040942;28;20037;-79
2023/06/14 07:14:57;;;;;;;15.57;9.18;;;24.50;42.30;;;;;;5038441;28;20056;-82
2023/06/14 07:17:23;;;;;;;12.48;9.02;;;24.50;42.10;;;;;;5037315;28;20237;-77
2023/06/14 07:19:49;;;;;;;15.95;9.27;;;24.50;42.80;;;;;;5036279;28;20890;-80
2023/06/14 07:22:14;;;;;;;17.20;8.98;;;24.70;41.70;;;;;;5036264;28;20029;-79
2023/06/14 07:24:42;;;;;;;14.77;9.07;;;24.80;41.00;;;;;;5031186;28;21370;-82
2023/06/14 07:27:08;;;;;;;17.77;8.38;;;25.00;41.60;;;;;;5042987;28;20422;-78
2023/06/14 07:29:34;;;;;;;13.10;7.90;;;25.30;41.00;;;;;;5042606;28;20040;-77
2023/06/14 07:31:59;;;;;;;13.35;8.70;;;25.40;41.00;;;;;;5039093;28;20049;-78
2023/06/14 07:34:26;;;;;;;11.85;9.38;;;25.60;40.60;;;;;;5041265;28;20481;-80
2023/06/14 07:36:52;;;;;;;12.30;7.72;;;25.60;39.30;;;;;;5045624;28;20724;-80
2023/06/14 07:39:17;;;;;;;16.67;8.25;;;25.50;39.30;;;;;;5039664;28;20029;-78
2023/06/14 07:41:43;;;;;;;11.90;7.82;;;25.60;39.80;;;;;;5035878;28;20044;-74
2023/06/14 07:44:08;;;;;;;12.10;8.07;;;25.50;39.70;;;;;;5035263;28;20044;-75
2023/06/14 07:46:34;;;;;;;12.95;8.43;;;25.80;39.20;;;;;;5044642;28;20454;-74
2023/06/14 07:49:00;;;;;;;13.52;8.30;;;25.90;39.30;;;;;;5046918;28;20500;-73
2023/06/14 07:51:26;;;;;;;11.43;8.13;;;25.80;39.70;;;;;;5043366;28;20038;-74
2023/06/14 07:53:52;;;;;;;12.48;8.18;;;25.90;39.80;;;;;;5036738;28;20100;-73
2023/06/14 07:56:17;;;;;;;11.38;7.57;;;25.80;39.20;;;;;;5038100;28;20037;-75
2023/06/14 07:58:43;;;;;;;12.98;7.65;;;26.10;39.20;;;;;;5046858;28;20035;-73
2023/06/14 08:01:09;;;;;;;11.40;7.40;;;26.20;38.90;;;;;;5041776;28;20083;-74
2023/06/14 08:03:35;;;;;;;13.50;7.55;;;26.40;38.10;;;;;;5046391;28;20033;-73
2023/06/14 08:06:01;;;;;;;11.40;7.15;;;26.50;38.40;;;;;;5042151;28;20074;-74
2023/06/14 08:08:27;;;;;;;14.55;7.38;;;26.60;37.70;;;;;;5042528;28;20029;-75
2023/06/14 08:10:53;;;;;;;11.05;6.88;;;26.70;37.00;;;;;;5039715;28;20099;-73
2023/06/14 08:13:18;;;;;;;11.65;6.80;;;26.30;38.00;;;;;;5042057;28;20597;-75
2023/06/14 08:15:45;;;;;;;10.70;7.22;;;26.60;38.20;;;;;;5038607;28;20024;-74
2023/06/14 08:18:10;;;;;;;12.32;7.53;;;26.50;38.50;;;;;;5039893;28;20037;-75
2023/06/14 08:20:36;;;;;;;13.45;8.02;;;26.80;37.80;;;;;;5046397;28;20036;-75
2023/06/14 08:23:03;;;;;;;14.30;7.55;;;26.90;36.70;;;;;;5043714;28;20077;-74
2023/06/14 08:25:30;;;;;;;12.40;7.07;;;26.80;36.90;;;;;;5041827;28;20056;-75
2023/06/14 08:27:55;;;;;;;15.45;7.95;;;26.80;37.10;;;;;;5048046;28;20040;-75
2023/06/14 08:30:22;;;;;;;10.13;6.35;;;27.00;36.00;;;;;;5039511;28;20029;-75
2023/06/14 08:32:47;;;;;;;10.45;6.72;;;26.60;36.30;;;;;;5042197;28;20061;-75
2023/06/14 08:35:13;;;;;;;9.93;6.55;;;26.90;35.80;;;;;;5044787;28;20060;-76
2023/06/14 08:37:42;;;;;;;11.38;6.20;;;27.30;35.00;;;;;;5039430;28;20436;-73
2023/06/14 08:40:20;;;;;;;12.43;7.00;;;27.00;34.50;;;;;;5037160;28;20026;-73
2023/06/14 08:42:52;;;;;;;10.23;6.30;;;27.50;34.20;;;;;;5033197;28;20439;-75
2023/06/14 08:45:19;;;;;;;11.52;6.10;;;27.50;33.50;;;;;;5039820;28;20025;-73
2023/06/14 08:47:45;;;;;;;10.13;5.97;;;27.90;33.10;;;;;;5039314;28;20135;-74
2023/06/14 08:50:12;;;;;;;11.07;6.25;;;28.20;33.30;;;;;;5039899;28;20478;-75
2023/06/14 08:52:40;;;;;;;9.55;6.20;;;28.30;32.60;;;;;;5043329;28;20024;-77
2023/06/14 08:55:08;;;;;;;10.32;6.03;;;28.50;32.80;;;;;;5041482;28;20056;-76
2023/06/14 08:57:37;;;;;;;12.10;6.40;;;28.70;33.10;;;;;;5044160;28;20565;-75
2023/06/14 09:00:11;;;;;;;11.75;6.43;;;29.00;33.00;;;;;;5036881;28;20382;-74
2023/06/14 09:02:38;;;;;;;8.90;6.90;;;28.90;32.70;;;;;;5041687;28;20047;-75
2023/06/14 09:05:04;;;;;;;10.85;6.93;;;28.60;32.70;;;;;;5038829;28;20501;-74
2023/06/14 09:07:29;;;;;;;11.13;6.35;;;28.70;31.60;;;;;;5041005;28;20041;-75
2023/06/14 09:10:15;;;;;;;11.23;6.45;;;28.30;31.20;;;;;;5039665;28;20087;-75
2023/06/14 09:12:42;;;;;;;11.98;6.40;;;28.30;31.90;;;;;;5039114;28;20401;-75
2023/06/14 09:15:08;;;;;;;10.73;6.60;;;28.00;31.50;;;;;;5038793;28;20076;-75
2023/06/14 09:17:38;;;;;;;11.20;6.43;;;28.00;31.30;;;;;;5040366;28;20034;-76
2023/06/14 09:20:18;;;;;;;12.32;6.75;;;27.90;32.10;;;;;;5040962;28;20048;-75
2023/06/14 09:22:45;;;;;;;10.82;6.57;;;28.20;31.30;;;;;;5041216;28;20441;-73
2023/06/14 09:25:13;;;;;;;10.02;6.45;;;28.20;31.50;;;;;;5040642;28;20096;-74
2023/06/14 09:27:39;;;;;;;14.68;6.93;;;28.50;30.60;;;;;;5040726;28;20040;-75
2023/06/14 09:30:09;;;;;;;10.50;6.63;;;28.70;30.20;;;;;;5044891;28;20021;-76
2023/06/14 09:32:37;;;;;;;8.77;5.85;;;29.20;29.70;;;;;;5040941;28;20029;-76
2023/06/14 09:35:04;;;;;;;10.02;6.55;;;29.40;30.10;;;;;;5046561;28;20029;-74
2023/06/14 09:37:31;;;;;;;8.63;6.57;;;29.70;30.00;;;;;;5044786;28;20385;-73
2023/06/14 09:39:57;;;;;;;10.07;6.65;;;29.30;29.20;;;;;;5041074;28;20537;-74
2023/06/14 09:42:28;;;;;;;9.23;6.93;;;29.00;29.90;;;;;;5032582;28;20045;-75
2023/06/14 09:44:56;;;;;;;10.88;6.38;;;28.60;29.20;;;;;;5040425;28;20025;-76
2023/06/14 09:47:23;;;;;;;11.90;6.57;;;28.80;28.70;;;;;;5040229;28;20064;-75
2023/06/14 09:49:50;;;;;;;9.40;6.60;;;28.80;29.40;;;;;;5042374;28;20029;-75
2023/06/14 09:52:17;;;;;;;9.68;6.68;;;29.10;29.40;;;;;;5030927;28;20045;-75
2023/06/14 09:54:47;;;;;;;10.70;7.05;;;29.40;29.10;;;;;;5044883;28;20044;-75
2023/06/14 09:57:15;;;;;;;10.38;7.10;;;28.90;29.10;;;;;;5043560;28;20512;-75
2023/06/14 09:59:43;;;;;;;9.35;6.07;;;28.90;29.60;;;;;;5038946;28;20109;-74
2023/06/14 10:02:18;;;;;;;10.40;6.45;;;29.20;29.90;;;;;;5037286;28;20025;-75
2023/06/14 10:04:49;;;;;;;11.70;6.43;;;29.60;29.00;;;;;;5039946;28;20504;-77
2023/06/14 10:07:20;;;;;;;10.40;6.65;;;30.00;29.20;;;;;;5040268;28;20044;-76
2023/06/14 10:09:49;;;;;;;11.80;7.07;;;29.90;28.10;;;;;;5041929;28;20049;-75
2023/06/14 10:12:20;;;;;;;11.68;7.15;;;30.10;28.10;;;;;;5040006;28;20392;-75
2023/06/14 10:14:50;;;;;;;10.30;7.20;;;30.30;27.90;;;;;;5043844;28;20041;-75
2023/06/14 10:17:47;;;;;;;11.55;6.53;;;30.50;28.00;;;;;;5036839;28;20036;-77
2023/06/14 10:20:25;;;;;;;10.88;6.55;;;30.60;27.50;;;;;;5036371;28;20502;-76
2023/06/14 10:22:59;;;;;;;11.27;6.97;;;30.20;27.60;;;;;;5037530;28;20665;-75
2023/06/14 10:25:33;;;;;;;9.30;6.82;;;30.00;27.70;;;;;;5038247;28;20374;-77
2023/06/14 10:28:18;;;;;;;9.25;6.55;;;29.70;27.90;;;;;;5036207;28;20477;-77
2023/06/14 10:31:06;;;;;;;10.90;6.80;;;29.60;28.40;;;;;;5037230;28;20064;-78
2023/06/14 10:33:38;;;;;;;11.80;7.05;;;29.30;28.10;;;;;;5036107;28;20060;-77
2023/06/14 10:36:28;;;;;;;10.60;6.70;;;29.30;27.80;;;;;;5036405;28;20034;-73
2023/06/14 10:39:08;;;;;;;11.13;6.75;;;29.40;27.90;;;;;;5026795;28;20057;-77
2023/06/14 10:41:36;;;;;;;12.98;6.47;;;29.40;27.90;;;;;;5031189;28;20072;-78
2023/06/14 10:44:14;;;;;;;9.93;7.15;;;29.80;28.20;;;;;;5028225;28;20095;-76
2023/06/14 10:46:51;;;;;;;11.52;6.90;;;29.50;28.20;;;;;;5025849;28;20566;-77
2023/06/14 10:49:18;;;;;;;11.13;7.32;;;29.50;28.20;;;;;;5030345;28;20156;-76
2023/06/14 10:51:57;;;;;;;12.05;7.28;;;29.70;28.10;;;;;;5030579;28;20029;-75
2023/06/14 10:54:23;;;;;;;10.25;7.15;;;29.80;28.50;;;;;;5028133;28;20132;-76
2023/06/14 10:56:50;;;;;;;9.93;6.80;;;29.20;28.60;;;;;;5027796;28;20072;-78
2023/06/14 10:59:17;;;;;;;10.38;6.72;;;29.60;28.40;;;;;;5030282;28;20037;-76
2023/06/14 11:02:03;;;;;;;8.48;6.90;;;29.90;28.10;;;;;;5027394;28;20052;-78
2023/06/14 11:04:50;;;;;;;10.23;6.88;;;30.00;27.00;;;;;;5031328;28;20506;-76
2023/06/14 11:07:43;;;;;;;9.77;7.32;;;30.00;27.30;;;;;;5027394;28;20030;-75
2023/06/14 11:10:50;;;;;;;10.85;6.50;;;29.40;27.90;;;;;;5027414;28;20056;-76
2023/06/14 11:13:17;;;;;;;12.05;6.93;;;29.80;28.60;;;;;;4983154;28;1184213;-77
2023/06/14 11:15:47;;;;;;;11.32;6.75;;;30.10;28.00;;;;;;5030884;28;20033;-76
2023/06/14 11:18:14;;;;;;;9.60;6.70;;;30.20;27.50;;;;;;5029147;28;20060;-77
2023/06/14 11:20:40;;;;;;;9.38;6.40;;;30.20;27.70;;;;;;5028886;28;20029;-75
2023/06/14 11:23:06;;;;;;;11.32;6.75;;;30.10;27.60;;;;;;5030398;28;20482;-77
2023/06/14 11:25:32;;;;;;;12.07;7.07;;;30.50;27.00;;;;;;5034758;28;20032;-76
2023/06/14 11:27:58;;;;;;;11.55;6.85;;;30.40;27.00;;;;;;5032879;28;20495;-77
2023/06/14 11:30:25;;;;;;;11.10;6.80;;;30.60;27.70;;;;;;5030667;28;20025;-76
2023/06/14 11:32:52;;;;;;;12.75;7.50;;;31.10;26.10;;;;;;5044514;28;20040;-75
2023/06/14 11:35:22;;;;;;;10.23;7.10;;;31.50;26.00;;;;;;5028787;28;20033;-79
2023/06/14 11:37:49;;;;;;;13.38;7.20;;;31.20;25.50;;;;;;5030579;28;20265;-77
2023/06/14 11:40:15;;;;;;;9.02;6.80;;;31.20;26.20;;;;;;5024351;28;20025;-77
2023/06/14 11:42:41;;;;;;;11.32;7.30;;;31.40;26.10;;;;;;5027059;28;20037;-77
2023/06/14 11:45:11;;;;;;;10.25;6.88;;;31.00;26.50;;;;;;5029614;28;20694;-78
2023/06/14 11:47:39;;;;;;;15.77;7.22;;;30.50;26.50;;;;;;5023633;28;20086;-78
2023/06/14 11:50:06;;;;;;;9.98;6.93;;;29.90;28.10;;;;;;5032767;28;20018;-76
2023/06/14 11:52:32;;;;;;;9.55;6.88;;;29.40;28.60;;;;;;5032895;28;20071;-77
2023/06/14 11:54:58;;;;;;;10.52;6.78;;;30.00;28.70;;;;;;5031063;28;20017;-76
2023/06/14 11:57:25;;;;;;;12.13;6.82;;;30.00;28.50;;;;;;5026675;28;20363;-77
2023/06/14 11:59:51;;;;;;;12.02;6.47;;;30.00;28.50;;;;;;5022378;28;20027;-77
2023/06/14 12:02:18;;;;;;;10.40;6.57;;;30.10;28.90;;;;;;5028620;28;20136;-78
2023/06/14 12:04:46;;;;;;;13.57;7.22;;;30.60;28.30;;;;;;5018990;28;20109;-77
2023/06/14 12:07:17;;;;;;;11.27;6.97;;;31.10;26.60;;;;;;5023953;28;20057;-77
2023/06/14 12:09:54;;;;;;;10.60;7.13;;;31.20;27.20;;;;;;5028980;28;20021;-79
2023/06/14 12:12:27;;;;;;;9.85;6.53;;;31.00;27.50;;;;;;5040748;28;20140;-74
2023/06/14 12:14:56;;;;;;;11.18;6.97;;;30.70;27.60;;;;;;5046458;28;20120;-76
2023/06/14 12:17:22;;;;;;;11.00;7.10;;;30.90;27.70;;;;;;5027206;28;20136;-75
2023/06/14 12:19:49;;;;;;;13.88;6.80;;;31.00;27.60;;;;;;5046410;28;20067;-75
2023/06/14 12:22:16;;;;;;;11.07;6.40;;;31.30;27.40;;;;;;5042938;28;20200;-75
2023/06/14 12:24:45;;;;;;;12.05;7.28;;;31.50;26.90;;;;;;5035560;28;20226;-76
2023/06/14 12:27:15;;;;;;;11.43;6.95;;;31.20;27.10;;;;;;5037850;28;20497;-76
2023/06/14 12:29:44;;;;;;;12.75;7.70;;;30.50;28.10;;;;;;5038397;28;20495;-77
2023/06/14 12:32:09;;;;;;;9.70;7.10;;;30.10;28.20;;;;;;5036690;28;20135;-75
2023/06/14 12:34:35;;;;;;;11.85;7.18;;;30.10;28.00;;;;;;5043092;28;20453;-75
2023/06/14 12:37:03;;;;;;;12.15;7.53;;;29.50;28.50;;;;;;5038333;28;20032;-74
2023/06/14 12:39:29;;;;;;;10.63;6.68;;;29.80;28.40;;;;;;5040455;28;20055;-75